Time;durP1;ratioP1;P1;durP2;ratioP2;P2;SDS_P1;SDS_P2;PMS_P1;PMS_P2;Temp;Humidity;BMP_temperature;BMP_pressure;BME280_temperature;BME280_humidity;BME280_pressure;Samples;Min_cycle;Max_cycle;Signal;HPM_P1;HPM_P2
2021/10/27 00:01:08;;;;;;;;;;;20.80;60.90;;;;;;5071765;28;1078;-71
2021/10/27 00:03:33;;;;;;;;;;;20.80;60.90;;;;;;5072156;28;1297;-69
2021/10/27 00:05:59;;;;;;;;;;;20.80;60.90;;;;;;5053415;28;1305;-69
2021/10/27 00:08:25;;;;;;;;;;;20.80;61.00;;;;;;5048963;28;1366;-69
2021/10/27 00:10:50;;;;;;;;;;;20.80;61.00;;;;;;5063768;28;1340;-69
2021/10/27 00:13:16;;;;;;;;;;;20.80;61.00;;;;;;5072369;28;1289;-69
2021/10/27 00:15:41;;;;;;;;;;;20.80;61.10;;;;;;5070825;28;1906;-69
2021/10/27 00:18:07;;;;;;;;;;;20.80;61.00;;;;;;5054656;28;1317;-71
2021/10/27 00:20:32;;;;;;;;;;;20.80;61.10;;;;;;5072296;28;1266;-71
2021/10/27 00:22:58;;;;;;;;;;;20.80;61.10;;;;;;5054310;28;1124;-71
2021/10/27 00:25:23;;;;;;;;;;;20.70;61.00;;;;;;5071109;28;1288;-71
2021/10/27 00:27:49;;;;;;;;;;;20.70;61.00;;;;;;5072132;28;1153;-71
2021/10/27 00:30:14;;;;;;;;;;;20.70;61.00;;;;;;5071961;28;1319;-71
2021/10/27 00:32:40;;;;;;;;;;;20.70;61.10;;;;;;5072572;28;1282;-70
2021/10/27 00:35:06;;;;;;;;;;;20.70;61.10;;;;;;5071057;28;1909;-71
2021/10/27 00:37:31;;;;;;;;;;;20.70;61.00;;;;;;5072005;28;1669;-71
2021/10/27 00:39:57;;;;;;;;;;;20.80;61.10;;;;;;5054105;28;1373;-70
2021/10/27 00:42:22;;;;;;;;;;;20.70;61.00;;;;;;5054225;28;1281;-71
2021/10/27 00:44:48;;;;;;;;;;;20.70;61.10;;;;;;5070941;28;1155;-71
2021/10/27 00:47:13;;;;;;;;;;;20.70;61.10;;;;;;5054038;28;1353;-71
2021/10/27 00:49:40;;;;;;;;;;;20.70;61.10;;;;;;5054172;28;1301;-71
2021/10/27 00:52:07;;;;;;;;;;;20.70;61.10;;;;;;5071624;28;1356;-70
2021/10/27 00:54:33;;;;;;;;;;;20.70;61.80;;;;;;5053418;28;1898;-71
2021/10/27 00:56:58;;;;;;;;;;;20.70;61.10;;;;;;5071513;28;1480;-70
2021/10/27 00:59:24;;;;;;;;;;;20.70;61.10;;;;;;5053440;28;1421;-71
2021/10/27 01:01:50;;;;;;;;;;;20.70;61.10;;;;;;5053778;28;1319;-71
2021/10/27 01:04:15;;;;;;;;;;;20.70;61.10;;;;;;5054803;28;1421;-71
2021/10/27 01:06:41;;;;;;;;;;;20.70;61.10;;;;;;5078961;28;1361;-70
2021/10/27 01:09:07;;;;;;;;;;;20.70;61.20;;;;;;5070513;28;1169;-72
2021/10/27 01:11:32;;;;;;;;;;;20.70;61.20;;;;;;5060039;28;1291;-71
2021/10/27 01:13:57;;;;;;;;;;;20.70;61.20;;;;;;5062754;28;1257;-71
2021/10/27 01:16:23;;;;;;;;;;;20.70;61.20;;;;;;5080871;28;1989;-70
2021/10/27 01:18:53;;;;;;;;;;;20.70;61.20;;;;;;5064096;28;1287;-71
2021/10/27 01:21:22;;;;;;;;;;;20.70;61.20;;;;;;5081601;28;1317;-72
2021/10/27 01:23:47;;;;;;;;;;;20.70;61.30;;;;;;5080054;28;1297;-71
2021/10/27 01:26:12;;;;;;;;;;;20.70;61.20;;;;;;5076051;28;1266;-72
2021/10/27 01:28:39;;;;;;;;;;;20.70;61.30;;;;;;5077254;28;1314;-71
2021/10/27 01:31:04;;;;;;;;;;;20.70;61.20;;;;;;5058289;28;1119;-71
2021/10/27 01:33:30;;;;;;;;;;;20.70;61.30;;;;;;5075964;28;1274;-68
2021/10/27 01:35:55;;;;;;;;;;;20.60;61.20;;;;;;5075365;28;1952;-72
2021/10/27 01:38:21;;;;;;;;;;;20.60;61.20;;;;;;5076506;28;1273;-71
2021/10/27 01:40:46;;;;;;;;;;;20.70;61.30;;;;;;5076106;28;1383;-72
2021/10/27 01:43:11;;;;;;;;;;;20.70;61.40;;;;;;5076492;28;1331;-72
2021/10/27 01:45:37;;;;;;;;;;;20.70;61.40;;;;;;5056736;28;1325;-72
2021/10/27 01:48:02;;;;;;;;;;;20.60;61.20;;;;;;5057718;28;1317;-71
2021/10/27 01:50:28;;;;;;;;;;;20.70;61.40;;;;;;5075727;28;1278;-72
2021/10/27 01:52:53;;;;;;;;;;;20.60;61.30;;;;;;5041941;28;1294;-72
2021/10/27 01:55:19;;;;;;;;;;;20.60;61.40;;;;;;5075260;28;1890;-70
2021/10/27 01:57:44;;;;;;;;;;;20.60;61.40;;;;;;5057245;28;1293;-70
2021/10/27 02:00:10;;;;;;;;;;;20.70;61.40;;;;;;5074974;28;1361;-71
2021/10/27 02:02:35;;;;;;;;;;;20.60;61.30;;;;;;5074835;28;1266;-70
2021/10/27 02:05:01;;;;;;;;;;;20.70;61.40;;;;;;5056075;28;1324;-69
2021/10/27 02:07:26;;;;;;;;;;;20.60;61.40;;;;;;5075639;28;1279;-70
2021/10/27 02:09:52;;;;;;;;;;;20.60;61.40;;;;;;5062469;28;1209;-70
2021/10/27 02:12:17;;;;;;;;;;;20.60;61.40;;;;;;5059799;28;1321;-70
2021/10/27 02:14:43;;;;;;;;;;;20.60;61.40;;;;;;5077977;28;1894;-68
2021/10/27 02:17:08;;;;;;;;;;;20.60;61.40;;;;;;5077822;28;1293;-70
2021/10/27 02:19:34;;;;;;;;;;;20.60;61.40;;;;;;5056114;28;1298;-70
2021/10/27 02:21:59;;;;;;;;;;;20.60;61.40;;;;;;5074081;28;1059;-69
2021/10/27 02:24:25;;;;;;;;;;;20.60;61.40;;;;;;5073460;28;1338;-70
2021/10/27 02:26:50;;;;;;;;;;;20.60;61.40;;;;;;5073898;28;1223;-70
2021/10/27 02:29:15;;;;;;;;;;;20.60;61.40;;;;;;5073782;28;1345;-70
2021/10/27 02:31:41;;;;;;;;;;;20.60;61.50;;;;;;5074475;28;1328;-69
2021/10/27 02:34:06;;;;;;;;;;;20.60;61.40;;;;;;5076912;28;1348;-68
2021/10/27 02:36:32;;;;;;;;;;;20.60;61.40;;;;;;5056560;28;1910;-68
2021/10/27 02:38:57;;;;;;;;;;;20.60;61.50;;;;;;5074777;28;1366;-70
2021/10/27 02:41:23;;;;;;;;;;;20.60;61.50;;;;;;5057727;28;1259;-70
2021/10/27 02:43:48;;;;;;;;;;;20.60;61.50;;;;;;5055411;28;1219;-70
2021/10/27 02:46:13;;;;;;;;;;;20.60;61.50;;;;;;5073024;28;1274;-70
2021/10/27 02:48:39;;;;;;;;;;;20.60;61.50;;;;;;5055565;28;1292;-70
2021/10/27 02:51:04;;;;;;;;;;;20.60;61.50;;;;;;5073140;28;1126;-69
2021/10/27 02:53:30;;;;;;;;;;;20.60;61.50;;;;;;5073489;28;1285;-70
2021/10/27 02:55:56;;;;;;;;;;;20.60;61.50;;;;;;5073087;28;1957;-71
2021/10/27 02:58:21;;;;;;;;;;;20.60;61.50;;;;;;5073574;28;1232;-70
2021/10/27 03:00:47;;;;;;;;;;;20.60;61.50;;;;;;5073494;28;1293;-70
2021/10/27 03:03:12;;;;;;;;;;;20.60;61.50;;;;;;5072115;28;1274;-71
2021/10/27 03:05:37;;;;;;;;;;;20.60;61.50;;;;;;5072632;28;1333;-69
2021/10/27 03:08:03;;;;;;;;;;;20.60;61.60;;;;;;5072850;28;1286;-70
2021/10/27 03:10:28;;;;;;;;;;;20.60;61.60;;;;;;5072895;28;1290;-71
2021/10/27 03:12:55;;;;;;;;;;;20.60;61.60;;;;;;5072963;28;1403;-71
2021/10/27 03:15:20;;;;;;;;;;;20.60;61.60;;;;;;5072486;28;1973;-71
2021/10/27 03:17:46;;;;;;;;;;;20.60;61.60;;;;;;5072786;28;1353;-71
2021/10/27 03:20:11;;;;;;;;;;;20.60;61.60;;;;;;5072312;28;1191;-71
2021/10/27 03:22:37;;;;;;;;;;;20.50;61.50;;;;;;5072240;28;1294;-68
2021/10/27 03:25:02;;;;;;;;;;;20.60;61.90;;;;;;5046545;28;1223;-69
2021/10/27 03:27:28;;;;;;;;;;;20.60;61.60;;;;;;5064834;28;1343;-68
2021/10/27 03:29:53;;;;;;;;;;;20.60;61.60;;;;;;5063617;28;1223;-68
2021/10/27 03:32:19;;;;;;;;;;;20.60;61.60;;;;;;5072773;28;1296;-69
2021/10/27 03:34:45;;;;;;;;;;;20.60;61.70;;;;;;5072829;28;1967;-69
2021/10/27 03:37:13;;;;;;;;;;;20.60;61.70;;;;;;5072218;28;1411;-69
2021/10/27 03:39:39;;;;;;;;;;;20.50;61.60;;;;;;5072518;28;1122;-69
2021/10/27 03:42:04;;;;;;;;;;;20.50;61.60;;;;;;5072681;28;1340;-69
2021/10/27 03:44:30;;;;;;;;;;;20.50;61.60;;;;;;5037151;28;1468;-69
2021/10/27 03:46:55;;;;;;;;;;;20.60;61.70;;;;;;5072112;28;1337;-70
2021/10/27 03:49:21;;;;;;;;;;;20.50;61.60;;;;;;5069199;28;1301;-69
2021/10/27 03:51:46;;;;;;;;;;;20.50;61.60;;;;;;5064576;28;1235;-69
2021/10/27 03:54:12;;;;;;;;;;;20.50;61.60;;;;;;5044541;28;1183;-68
2021/10/27 03:56:38;;;;;;;;;;;20.50;61.70;;;;;;5068020;28;1950;-70
2021/10/27 03:59:03;;;;;;;;;;;20.50;61.70;;;;;;5062594;28;1254;-68
2021/10/27 04:01:28;;;;;;;;;;;20.50;61.70;;;;;;5064681;28;1250;-70
2021/10/27 04:03:54;;;;;;;;;;;20.50;61.70;;;;;;5046175;28;1199;-68
2021/10/27 04:06:19;;;;;;;;;;;20.50;61.70;;;;;;5066234;28;1721;-68
2021/10/27 04:08:45;;;;;;;;;;;20.50;61.70;;;;;;5047271;28;1373;-68
2021/10/27 04:11:10;;;;;;;;;;;20.50;61.70;;;;;;5048604;28;1262;-68
2021/10/27 04:13:36;;;;;;;;;;;20.50;61.70;;;;;;5064553;28;1282;-68
2021/10/27 04:16:01;;;;;;;;;;;20.50;61.70;;;;;;5044556;28;1961;-68
2021/10/27 04:18:27;;;;;;;;;;;20.50;61.70;;;;;;5048467;28;1222;-69
2021/10/27 04:20:52;;;;;;;;;;;20.50;61.70;;;;;;5063841;28;1283;-68
2021/10/27 04:23:17;;;;;;;;;;;20.50;61.80;;;;;;5068132;28;1267;-68
2021/10/27 04:25:43;;;;;;;;;;;20.50;61.70;;;;;;5062370;28;1441;-68
2021/10/27 04:28:08;;;;;;;;;;;20.50;61.80;;;;;;5046163;28;1171;-68
2021/10/27 04:30:34;;;;;;;;;;;20.50;61.70;;;;;;5062814;28;1297;-69
2021/10/27 04:33:00;;;;;;;;;;;20.50;61.70;;;;;;5049589;28;1258;-69
2021/10/27 04:35:26;;;;;;;;;;;20.50;61.80;;;;;;5046692;28;1914;-69
2021/10/27 04:37:51;;;;;;;;;;;20.50;61.80;;;;;;5067017;28;1223;-69
2021/10/27 04:40:17;;;;;;;;;;;20.50;61.80;;;;;;5063896;28;1132;-69
2021/10/27 04:42:42;;;;;;;;;;;20.50;61.80;;;;;;5070494;28;1282;-70
2021/10/27 04:45:08;;;;;;;;;;;20.50;61.70;;;;;;5048464;28;1361;-69
2021/10/27 04:47:34;;;;;;;;;;;20.50;61.70;;;;;;5067180;28;1304;-69
2021/10/27 04:49:59;;;;;;;;;;;20.60;61.70;;;;;;5067615;28;1274;-68
2021/10/27 04:52:25;;;;;;;;;;;20.50;61.70;;;;;;5076021;28;1403;-68
2021/10/27 04:54:50;;;;;;;;;;;20.50;61.60;;;;;;5057032;28;1957;-69
2021/10/27 04:57:16;;;;;;;;;;;20.60;61.60;;;;;;5057597;28;1329;-68
2021/10/27 04:59:44;;;;;;;;;;;20.60;61.60;;;;;;5074210;28;1286;-69
2021/10/27 05:02:14;;;;;;;;;;;20.60;61.50;;;;;;5045056;28;1246;-70
2021/10/27 05:04:41;;;;;;;;;;;20.60;61.40;;;;;;5075068;28;1337;-70
2021/10/27 05:07:06;;;;;;;;;;;20.60;61.40;;;;;;5058164;28;1382;-69
2021/10/27 05:09:31;;;;;;;;;;;20.60;61.40;;;;;;5057076;28;1220;-70
2021/10/27 05:11:57;;;;;;;;;;;20.60;61.30;;;;;;5075726;28;1639;-70
2021/10/27 05:14:22;;;;;;;;;;;20.60;61.30;;;;;;5057126;28;1344;-69
2021/10/27 05:16:48;;;;;;;;;;;20.60;61.20;;;;;;5074446;28;1903;-69
2021/10/27 05:19:13;;;;;;;;;;;20.60;61.20;;;;;;5057395;28;1270;-69
2021/10/27 05:21:39;;;;;;;;;;;20.60;61.90;;;;;;5075320;28;1313;-70
2021/10/27 05:24:04;;;;;;;;;;;20.60;61.20;;;;;;5057043;28;1305;-69
2021/10/27 05:26:30;;;;;;;;;;;20.70;61.10;;;;;;5074432;28;1361;-69
2021/10/27 05:28:55;;;;;;;;;;;20.70;61.10;;;;;;5039739;28;1173;-70
2021/10/27 05:31:21;;;;;;;;;;;20.70;61.10;;;;;;5056975;28;1086;-69
2021/10/27 05:33:46;;;;;;;;;;;20.70;61.10;;;;;;5075118;28;1297;-69
2021/10/27 05:36:12;;;;;;;;;;;20.70;61.00;;;;;;5073823;28;1975;-70
2021/10/27 05:38:38;;;;;;;;;;;20.70;61.00;;;;;;5057027;28;1195;-69
2021/10/27 05:41:04;;;;;;;;;;;20.70;61.00;;;;;;5075023;28;1166;-69
2021/10/27 05:43:29;;;;;;;;;;;20.70;61.00;;;;;;5070893;28;1211;-69
2021/10/27 05:45:57;;;;;;;;;;;20.70;61.00;;;;;;5066487;28;1297;-69
2021/10/27 05:48:25;;;;;;;;;;;20.70;61.00;;;;;;5049630;28;1247;-69
2021/10/27 05:51:37;;;;;;;;;;;20.70;61.00;;;;;;5070317;28;1342;-70
2021/10/27 05:56:27;;;;;;;;;;;20.70;60.90;;;;;;5068413;28;1897;-68
2021/10/27 05:58:52;;;;;;;;;;;20.70;61.00;;;;;;5056602;28;1379;-69
2021/10/27 06:01:18;;;;;;;;;;;20.70;60.90;;;;;;5074408;28;1201;-70
2021/10/27 06:03:43;;;;;;;;;;;20.70;60.60;;;;;;5074997;28;1106;-71
2021/10/27 06:06:09;;;;;;;;;;;20.70;59.50;;;;;;5074594;28;1285;-72
2021/10/27 06:08:34;;;;;;;;;;;20.70;58.50;;;;;;5050159;28;1368;-69
2021/10/27 06:11:08;;;;;;;;;;;20.70;58.30;;;;;;5039329;28;2059;-69
2021/10/27 06:13:36;;;;;;;;;;;20.70;58.60;;;;;;5069073;28;968;-68
2021/10/27 06:16:01;;;;;;;;;;;20.70;58.50;;;;;;5072286;28;1902;-68
2021/10/27 06:18:28;;;;;;;;;;;20.70;58.60;;;;;;5038904;28;1482;-68
2021/10/27 06:20:53;;;;;;;;;;;20.70;58.70;;;;;;5073586;28;1094;-68
2021/10/27 06:23:18;;;;;;;;;;;20.70;58.80;;;;;;5072989;28;975;-68
2021/10/27 06:25:45;;;;;;;;;;;20.70;58.90;;;;;;5072077;28;1268;-67
2021/10/27 06:28:14;;;;;;;;;;;20.70;59.10;;;;;;5055140;28;1478;-66
2021/10/27 06:30:44;;;;;;;;;;;20.70;59.10;;;;;;5072690;28;1217;-69
2021/10/27 06:33:45;;;;;;;;;;;20.70;59.20;;;;;;5072975;28;1278;-68
2021/10/27 06:46:42;;;;;;;;;;;20.80;59.40;;;;;;5057328;28;1354;-67
2021/10/27 06:49:08;;;;;;;;;;;20.90;59.40;;;;;;5072546;28;1346;-68
2021/10/27 06:51:34;;;;;;;;;;;20.90;59.40;;;;;;5072641;28;1286;-68
2021/10/27 06:53:59;;;;;;;;;;;21.00;59.40;;;;;;5037481;28;1331;-68
2021/10/27 06:59:07;;;;;;;;;;;21.10;59.20;;;;;;5087333;28;2612;-67
2021/10/27 07:02:11;;;;;;;;;;;21.10;59.00;;;;;;5094222;28;1747;-68
2021/10/27 07:17:23;;;;;;;;;;;21.40;58.60;;;;;;5093219;28;1615;-68
2021/10/27 07:19:49;;;;;;;;;;;21.40;58.60;;;;;;5092990;28;1445;-68
2021/10/27 07:22:14;;;;;;;;;;;21.40;58.50;;;;;;5093665;28;1203;-69
2021/10/27 07:24:41;;;;;;;;;;;21.40;58.40;;;;;;5092864;28;1709;-68
2021/10/27 07:27:09;;;;;;;;;;;21.40;58.30;;;;;;5092936;28;1590;-68
2021/10/27 07:29:34;;;;;;;;;;;21.40;58.30;;;;;;5075285;28;1647;-67
2021/10/27 07:32:01;;;;;;;;;;;21.50;58.30;;;;;;5093504;28;1689;-68
2021/10/27 07:35:03;;;;;;;;;;;21.50;58.20;;;;;;5092736;28;1662;-67
2021/10/27 07:42:47;;;;;;;;;;;21.60;58.20;;;;;;5077835;28;1578;-68
2021/10/27 07:45:12;;;;;;;;;;;21.60;58.10;;;;;;5092236;28;1640;-68
2021/10/27 07:47:38;;;;;;;;;;;21.60;58.10;;;;;;5093018;28;1694;-68
2021/10/27 07:50:03;;;;;;;;;;;21.60;58.10;;;;;;5074229;28;1578;-68
2021/10/27 07:52:29;;;;;;;;;;;21.60;58.10;;;;;;5092962;28;1678;-68
2021/10/27 07:54:54;;;;;;;;;;;21.60;58.00;;;;;;5091801;28;1890;-68
2021/10/27 07:57:19;;;;;;;;;;;21.60;58.00;;;;;;5092357;28;1432;-68
2021/10/27 07:59:45;;;;;;;;;;;21.60;58.00;;;;;;5092873;28;1611;-68
2021/10/27 08:02:11;;;;;;;;;;;21.70;58.60;;;;;;5092443;28;1276;-68
2021/10/27 08:04:36;;;;;;;;;;;21.70;58.00;;;;;;5091766;28;1691;-68
2021/10/27 08:07:03;;;;;;;;;;;21.70;58.00;;;;;;5074244;28;1296;-68
2021/10/27 08:09:28;;;;;;;;;;;21.70;58.10;;;;;;5060797;28;1809;-68
2021/10/27 08:11:54;;;;;;;;;;;21.70;58.00;;;;;;5074442;28;1577;-68
2021/10/27 08:14:19;;;;;;;;;;;21.70;58.00;;;;;;5091578;28;1585;-68
2021/10/27 08:16:45;;;;;;;;;;;21.70;58.00;;;;;;5092016;28;1949;-68
2021/10/27 08:19:11;;;;;;;;;;;21.70;58.00;;;;;;5092779;28;1593;-68
2021/10/27 08:21:36;;;;;;;;;;;21.70;58.00;;;;;;5074943;28;1607;-68
2021/10/27 08:24:02;;;;;;;;;;;21.70;58.00;;;;;;5092503;28;1585;-68
2021/10/27 08:26:28;;;;;;;;;;;21.70;58.00;;;;;;5092316;28;1718;-68
2021/10/27 08:28:57;;;;;;;;;;;21.70;58.00;;;;;;5074794;28;1440;-68
2021/10/27 08:31:37;;;;;;;;;;;21.70;58.00;;;;;;5075324;28;1605;-67
2021/10/27 08:34:07;;;;;;;;;;;21.70;58.00;;;;;;5092337;28;1549;-68
2021/10/27 08:36:33;;;;;;;;;;;21.70;58.00;;;;;;5091294;28;1894;-68
2021/10/27 08:39:00;;;;;;;;;;;21.80;58.00;;;;;;5092486;28;1605;-67
2021/10/27 08:41:26;;;;;;;;;;;21.70;58.00;;;;;;5092151;28;1196;-68
2021/10/27 08:43:51;;;;;;;;;;;21.80;58.00;;;;;;5092305;28;1392;-68
2021/10/27 08:46:16;;;;;;;;;;;21.80;58.00;;;;;;5090863;28;1647;-68
2021/10/27 08:48:43;;;;;;;;;;;21.80;58.00;;;;;;5074183;28;1678;-68
2021/10/27 08:51:10;;;;;;;;;;;21.70;58.00;;;;;;5074456;28;1648;-68
2021/10/27 08:53:36;;;;;;;;;;;21.70;58.00;;;;;;5074754;28;1396;-68
2021/10/27 08:56:04;;;;;;;;;;;21.70;58.00;;;;;;5090902;28;1953;-67
2021/10/27 08:58:37;;;;;;;;;;;21.80;58.00;;;;;;5073843;28;1731;-67
2021/10/27 09:04:24;;;;;;;;;;;21.80;57.90;;;;;;5079082;28;1514;-69
2021/10/27 09:08:20;;;;;;;;;;;21.80;57.90;;;;;;5091830;28;1629;-68
2021/10/27 09:15:56;;;;;;;;;;;21.80;57.90;;;;;;5091088;28;1973;-69
2021/10/27 09:35:10;;;;;;;;;;;21.70;58.10;;;;;;5094472;28;1943;-70
2021/10/27 09:41:00;;;;;;;;;;;21.70;58.20;;;;;;5059384;28;1609;-70
2021/10/27 09:47:00;;;;;;;;;;;21.70;58.30;;;;;;5032304;28;1283;-71
2021/10/27 10:06:00;;;;;;;;;;;21.60;58.50;;;;;;5079063;28;1408;-70
2021/10/27 10:08:25;;;;;;;;;;;21.60;58.60;;;;;;5059923;28;1702;-70
2021/10/27 10:10:51;;;;;;;;;;;21.50;58.60;;;;;;5076916;28;1321;-71
2021/10/27 10:13:19;;;;;;;;;;;21.50;58.60;;;;;;5075912;28;1263;-69
2021/10/27 10:15:44;;;;;;;;;;;21.50;58.70;;;;;;5075491;28;1922;-70
2021/10/27 10:18:10;;;;;;;;;;;21.50;58.70;;;;;;5094444;28;1293;-69
2021/10/27 10:20:40;;;;;;;;;;;21.50;58.80;;;;;;5076467;28;1277;-70
2021/10/27 10:23:22;;;;;;;;;;;21.40;58.80;;;;;;5077122;28;1267;-70
2021/10/27 10:25:48;;;;;;;;;;;21.50;58.90;;;;;;5075571;28;1074;-69
2021/10/27 10:28:15;;;;;;;;;;;21.40;58.90;;;;;;5092185;28;2228;-68
2021/10/27 10:30:45;;;;;;;;;;;21.40;58.90;;;;;;5076012;28;1280;-69
2021/10/27 10:33:11;;;;;;;;;;;21.40;58.90;;;;;;5086690;28;1018;-68
2021/10/27 10:35:44;;;;;;;;;;;21.40;59.00;;;;;;5093306;28;1914;-70
2021/10/27 10:38:34;;;;;;;;;;;21.30;59.00;;;;;;5093350;28;1283;-71
2021/10/27 10:41:16;;;;;;;;;;;21.40;59.10;;;;;;5094001;28;1049;-69
2021/10/27 10:57:26;;;;;;;;;;;21.20;59.20;;;;;;5091631;28;1910;-69
2021/10/27 11:23:14;;;;;;;;;;;21.10;59.40;;;;;;5078300;28;1234;-70
2021/10/27 11:45:01;;;;;;;;;;;21.00;59.70;;;;;;5075277;28;1294;-69
2021/10/27 11:47:36;;;;;;;;;;;21.00;59.70;;;;;;5092728;28;1374;-69
2021/10/27 11:50:03;;;;;;;;;;;21.00;59.90;;;;;;5091588;28;1273;-69
2021/10/27 11:52:32;;;;;;;;;;;21.00;60.10;;;;;;5092355;28;1063;-68
2021/10/27 11:54:57;;;;;;;;;;;21.00;60.50;;;;;;5074146;28;1277;-70
2021/10/27 11:57:27;;;;;;;;;;;21.00;60.40;;;;;;5092078;28;1965;-70
2021/10/27 11:59:53;;;;;;;;;;;21.00;60.30;;;;;;5093035;28;1342;-70
2021/10/27 12:02:19;;;;;;;;;;;21.00;60.30;;;;;;5092820;28;1354;-69
2021/10/27 12:04:45;;;;;;;;;;;21.00;60.30;;;;;;5092376;28;1332;-69
2021/10/27 12:07:22;;;;;;;;;;;21.00;60.30;;;;;;5092416;28;1342;-69
2021/10/27 12:10:02;;;;;;;;;;;20.90;60.20;;;;;;5092293;28;1197;-70
2021/10/27 12:12:33;;;;;;;;;;;20.90;60.30;;;;;;5092627;28;1293;-68
2021/10/27 12:17:59;;;;;;;;;;;20.90;60.30;;;;;;5092200;28;1406;-70
2021/10/27 12:20:29;;;;;;;;;;;20.90;60.40;;;;;;5065511;28;1352;-71
2021/10/27 12:22:55;;;;;;;;;;;20.90;60.40;;;;;;5084680;28;1318;-70
2021/10/27 12:25:21;;;;;;;;;;;20.90;60.40;;;;;;5062617;28;1195;-71
2021/10/27 12:27:47;;;;;;;;;;;20.90;60.40;;;;;;5088099;28;1280;-72
2021/10/27 12:30:15;;;;;;;;;;;20.90;60.40;;;;;;5091239;28;1262;-74
2021/10/27 12:32:50;;;;;;;;;;;20.90;61.30;;;;;;5072941;28;1270;-74
2021/10/27 12:35:16;;;;;;;;;;;20.90;60.50;;;;;;5090171;28;1969;-74
2021/10/27 12:37:45;;;;;;;;;;;20.80;60.50;;;;;;5091268;28;1362;-68
2021/10/27 12:42:58;;;;;;;;;;;20.80;60.50;;;;;;5092052;28;1291;-69
2021/10/27 12:45:42;;;;;;;;;;;20.80;60.50;;;;;;5088963;28;1159;-69
2021/10/27 12:48:09;;;;;;;;;;;20.80;60.60;;;;;;5083608;28;1290;-70
2021/10/27 12:50:35;;;;;;;;;;;20.80;60.60;;;;;;5074234;28;1307;-70
2021/10/27 12:53:01;;;;;;;;;;;20.80;60.60;;;;;;5091081;28;1320;-69
2021/10/27 12:55:33;;;;;;;;;;;20.80;60.60;;;;;;5091238;28;1902;-69
2021/10/27 12:58:01;;;;;;;;;;;20.80;60.70;;;;;;5104342;22;3670;-70
2021/10/27 13:00:31;;;;;;;;;;;20.80;60.70;;;;;;5070042;28;1180;-69
2021/10/27 13:03:16;;;;;;;;;;;20.80;60.70;;;;;;5075853;28;1431;-71
2021/10/27 13:05:47;;;;;;;;;;;20.80;60.80;;;;;;5075113;28;1360;-70
2021/10/27 13:11:22;;;;;;;;;;;20.80;60.80;;;;;;5046976;28;1388;-68
2021/10/27 13:14:13;;;;;;;;;;;20.70;60.70;;;;;;5075621;28;1480;-70
2021/10/27 13:19:50;;;;;;;;;;;20.70;60.80;;;;;;5075116;28;1665;-70
2021/10/27 13:30:46;;;;;;;;;;;20.70;60.80;;;;;;5072306;28;1963;-70
2021/10/27 13:33:11;;;;;;;;;;;20.70;60.80;;;;;;5074379;28;1446;-70
2021/10/27 13:35:37;;;;;;;;;;;20.80;60.80;;;;;;5073906;28;1897;-70
2021/10/27 13:38:03;;;;;;;;;;;20.80;60.70;;;;;;5074495;28;1246;-70
2021/10/27 13:40:29;;;;;;;;;;;20.80;60.70;;;;;;5056850;28;1700;-70
2021/10/27 13:43:10;;;;;;;;;;;20.90;60.60;;;;;;5074670;28;1671;-70
2021/10/27 14:07:08;;;;;;;;;;;21.50;59.20;;;;;;5074670;28;1373;-69
2021/10/27 14:14:52;;;;;;;;;;;21.60;58.90;;;;;;5064754;28;1404;-70
2021/10/27 14:17:36;;;;;;;;;;;21.60;58.80;;;;;;5048833;28;1910;-69
2021/10/27 14:20:20;;;;;;;;;;;21.70;58.70;;;;;;5066118;28;1294;-70
2021/10/27 14:47:39;;;;;;;;;;;21.80;58.20;;;;;;5072945;28;1306;-69
2021/10/27 15:20:22;;;;;;;;;;;21.80;58.50;;;;;;5057556;28;1851;-69
2021/10/27 15:30:47;;;;;;;;;;;21.70;58.40;;;;;;5053402;28;1202;-69
2021/10/27 15:33:27;;;;;;;;;;;21.80;58.50;;;;;;5067752;28;2123;-68
2021/10/27 15:36:06;;;;;;;;;;;21.70;58.50;;;;;;5068098;28;2013;-70
2021/10/27 15:51:58;;;;;;;;;;;21.80;59.10;;;;;;5071881;28;1258;-69
2021/10/27 15:54:24;;;;;;;;;;;21.70;59.20;;;;;;5054480;28;1265;-69
2021/10/27 15:56:50;;;;;;;;;;;21.70;59.20;;;;;;5054455;28;1890;-69
2021/10/27 15:59:16;;;;;;;;;;;21.70;59.20;;;;;;5069057;28;2202;-69
2021/10/27 16:01:41;;;;;;;;;;;21.70;59.20;;;;;;5071521;28;1075;-70
2021/10/27 16:04:07;;;;;;;;;;;21.70;59.30;;;;;;5071485;28;1114;-70
2021/10/27 16:06:39;;;;;;;;;;;21.70;59.30;;;;;;5054052;28;1298;-69
2021/10/27 16:09:07;;;;;;;;;;;21.70;59.30;;;;;;5055328;28;1250;-70
2021/10/27 16:11:33;;;;;;;;;;;21.70;59.20;;;;;;5054891;28;1124;-70
2021/10/27 16:13:59;;;;;;;;;;;21.70;59.10;;;;;;5071769;28;1231;-69
2021/10/27 16:16:24;;;;;;;;;;;21.70;59.10;;;;;;5071336;28;1977;-70
2021/10/27 16:18:50;;;;;;;;;;;21.70;59.10;;;;;;5072412;28;1297;-70
2021/10/27 16:21:15;;;;;;;;;;;21.70;59.00;;;;;;5071909;28;1263;-70
2021/10/27 16:23:41;;;;;;;;;;;21.70;59.00;;;;;;5071581;28;1290;-70
2021/10/27 16:26:06;;;;;;;;;;;21.70;59.00;;;;;;5072037;28;1348;-69
2021/10/27 16:28:33;;;;;;;;;;;21.70;59.00;;;;;;5072315;28;1231;-70
2021/10/27 16:30:58;;;;;;;;;;;21.70;59.00;;;;;;5072272;28;1051;-70
2021/10/27 16:33:24;;;;;;;;;;;21.70;59.00;;;;;;5072548;28;1414;-69
2021/10/27 16:35:50;;;;;;;;;;;21.70;59.10;;;;;;5071297;28;1886;-70
2021/10/27 16:38:15;;;;;;;;;;;21.70;59.10;;;;;;5058451;28;1350;-70
2021/10/27 16:40:41;;;;;;;;;;;21.70;59.10;;;;;;5076297;28;1170;-70
2021/10/27 16:43:07;;;;;;;;;;;21.70;59.10;;;;;;5057930;28;1308;-70
2021/10/27 16:45:32;;;;;;;;;;;21.60;59.10;;;;;;5057597;28;1349;-70
2021/10/27 16:47:58;;;;;;;;;;;21.60;59.10;;;;;;5053579;28;1309;-69
2021/10/27 16:50:23;;;;;;;;;;;21.60;59.10;;;;;;5068619;28;1259;-69
2021/10/27 16:52:49;;;;;;;;;;;21.60;59.10;;;;;;5056393;28;1412;-73
2021/10/27 16:55:18;;;;;;;;;;;21.60;59.10;;;;;;5068032;28;1930;-69
2021/10/27 16:57:45;;;;;;;;;;;21.60;59.20;;;;;;5067597;28;1342;-70
2021/10/27 17:00:11;;;;;;;;;;;21.60;59.20;;;;;;5067083;28;2226;-72
2021/10/27 17:02:36;;;;;;;;;;;21.60;59.20;;;;;;5047508;28;1471;-71
2021/10/27 17:05:02;;;;;;;;;;;21.60;59.20;;;;;;5065481;28;1247;-70
2021/10/27 17:07:27;;;;;;;;;;;21.60;59.20;;;;;;5066878;28;1319;-70
2021/10/27 17:09:53;;;;;;;;;;;21.60;59.20;;;;;;5067651;28;1253;-72
2021/10/27 17:12:18;;;;;;;;;;;21.60;59.80;;;;;;5050966;28;1363;-71
2021/10/27 17:14:44;;;;;;;;;;;21.60;59.30;;;;;;5065870;28;1352;-70
2021/10/27 17:17:09;;;;;;;;;;;21.50;59.20;;;;;;5047132;28;1957;-70
2021/10/27 17:19:35;;;;;;;;;;;21.50;59.20;;;;;;5048325;28;1334;-70
2021/10/27 17:22:01;;;;;;;;;;;21.50;59.20;;;;;;5067929;28;1512;-69
2021/10/27 17:24:27;;;;;;;;;;;21.50;59.20;;;;;;5064504;28;1285;-69
2021/10/27 17:26:56;;;;;;;;;;;21.50;59.30;;;;;;5067479;28;1803;-70
2021/10/27 17:29:22;;;;;;;;;;;21.50;59.20;;;;;;5067918;28;2126;-69
2021/10/27 17:31:47;;;;;;;;;;;21.50;59.20;;;;;;5072589;28;1333;-70
2021/10/27 17:34:13;;;;;;;;;;;21.50;59.30;;;;;;5073817;28;1648;-69
2021/10/27 17:36:38;;;;;;;;;;;21.50;59.30;;;;;;5056419;28;1959;-69
2021/10/27 17:39:04;;;;;;;;;;;21.50;59.30;;;;;;5074182;28;1604;-70
2021/10/27 17:41:31;;;;;;;;;;;21.50;59.30;;;;;;5074559;28;1710;-70
2021/10/27 17:43:57;;;;;;;;;;;21.50;59.30;;;;;;5056861;28;1366;-69
2021/10/27 17:46:26;;;;;;;;;;;21.50;59.30;;;;;;5074271;28;1452;-69
2021/10/27 17:48:55;;;;;;;;;;;21.50;59.40;;;;;;5073151;28;1491;-70
2021/10/27 17:51:24;;;;;;;;;;;21.50;59.40;;;;;;5074685;28;1623;-70
2021/10/27 17:59:17;;;;;;;;;;;21.50;59.30;;;;;;5073793;28;1342;-70
2021/10/27 18:01:43;;;;;;;;;;;21.50;59.40;;;;;;5074791;28;1702;-69
2021/10/27 18:04:09;;;;;;;;;;;21.50;59.40;;;;;;5055129;28;1680;-70
2021/10/27 18:06:37;;;;;;;;;;;21.40;59.30;;;;;;5039214;28;1422;-70
2021/10/27 18:09:09;;;;;;;;;;;21.40;59.30;;;;;;5052546;28;1658;-70
2021/10/27 18:11:35;;;;;;;;;;;21.40;59.40;;;;;;5054845;28;1851;-69
2021/10/27 18:19:10;;;;;;;;;;;21.40;59.40;;;;;;5074159;28;1680;-69
2021/10/27 18:37:47;;;;;;;;;;;21.40;59.40;;;;;;5058297;28;1906;-69
2021/10/27 18:43:39;;;;;;;;;;;21.40;60.10;;;;;;5058501;28;1377;-69
2021/10/27 18:45:50;;;;;;;;;;;21.40;59.40;;;;;;5061932;28;1527;-70
2021/10/27 18:48:17;;;;;;;;;;;21.40;59.50;;;;;;5051782;28;1592;-70
2021/10/27 18:50:48;;;;;;;;;;;21.40;59.50;;;;;;5055348;28;1437;-70
2021/10/27 18:56:48;;;;;;;;;;;21.40;59.50;;;;;;5052879;28;1897;-70
2021/10/27 19:01:38;;;;;;;;;;;21.40;59.50;;;;;;5056036;28;1374;-70
2021/10/27 19:12:11;;;;;;;;;;;21.40;59.50;;;;;;5072632;28;1051;-69
2021/10/27 19:17:21;;;;;;;;;;;21.40;59.50;;;;;;5061151;28;2034;-70
2021/10/27 19:19:47;;;;;;;;;;;21.40;59.60;;;;;;5048986;28;1325;-70
2021/10/27 19:22:12;;;;;;;;;;;21.30;59.50;;;;;;5050735;28;1259;-71
2021/10/27 19:27:08;;;;;;;;;;;21.30;59.50;;;;;;5072724;28;1343;-71
2021/10/27 19:29:39;;;;;;;;;;;21.40;59.60;;;;;;5071859;28;1111;-69
2021/10/27 19:32:41;;;;;;;;;;;21.40;59.60;;;;;;5072312;28;1134;-70
2021/10/27 19:35:22;;;;;;;;;;;21.40;59.60;;;;;;5063988;28;1647;-70
2021/10/27 20:10:41;;;;;;;;;;;21.30;59.60;;;;;;5071195;28;1317;-71
2021/10/27 20:16:34;;;;;;;;;;;21.30;59.70;;;;;;5071382;28;1902;-69
2021/10/27 20:27:20;;;;;;;;;;;21.30;59.60;;;;;;5072078;28;1307;-71
2021/10/27 20:54:10;;;;;;;;;;;21.30;59.70;;;;;;5071239;28;1516;-68